Zanesville Municipal Airport
KZZV : now visible

Airfield :











YOU CAN JOIN US ON...

 
LOGIN :

Register | Disclaimer

   EN    FR    IT 

 









Legend :    VFR   Marginal VFR   IFR   Intensive IFR   Very Intensive IFR
Visi :
Ceiling :
>= 8 km
>= 3000ft
5 to 8 km
1000 to 3000 ft
1500m to 5 km
500 to 1000 ft
800 to 1500m
200 to 500 ft
< 800m
< 200 ft
Symbols :   Thunderstorms  Fog  Heavy snow  Heavy precipitations  Wind > 20 kt







- Airport Elevation : 900 ft


KZZV - Zanesville Municipal

CURRENT METAR :
  • 221853Z AUTO 20014KT 10SM CLR 29/17 A3005 RMK AO2 SLP170 T02940167

EXPIRED METARs :
  • 221753Z AUTO 17008KT 10SM CLR 28/17 A3006 RMK AO2 SLP174 T02830172 10283 20128 58002
  • 221653Z AUTO 18010KT 10SM FEW100 27/16 A3007 RMK AO2 SLP179 T02670161

TAF KZZV
Valid from the 22 at 18:00 until the 23 at 18:00 UTC


221725Z 2218/2318 18010KT P6SM FEW100
FM230100 20006KT P6SM VCSH BKN050
FM230500 21007KT P6SM BKN050
FM231300 23012G18KT P6SM VCTS BKN035CB
KZID FIR / North America



MET'MAP, your aeronautical weather chart ! - Copyright ORBIFLY December 2007 - Disclaimer

ORBIFLY MET'MAP TEAM :

Programming & Development : Alexandra Zaïnal
Concept & Development : Baudouin d'Aumeries
Co-Development & Prog : Marc-Olivier Méhu
Technical & hardware support : Manuel Goepfert

Contact : metmap@orbifly.com




SOURCES & CREDITS :

   NOAA       Earth
Advisory